Time;durP1;ratioP1;P1;durP2;ratioP2;P2;SDS_P1;SDS_P2;PMS_P1;PMS_P2;Temp;Humidity;BMP_temperature;BMP_pressure;BME280_temperature;BME280_humidity;BME280_pressure;Samples;Min_cycle;Max_cycle;Signal;HPM_P1;HPM_P2
2021/03/17 04:15:42;;;;;;;1.67;1.58;;;-4.40;91.30;;;;;;5089901;28;20044;-64
2021/03/17 04:18:12;;;;;;;2.30;1.90;;;-4.40;91.10;;;;;;5092181;28;20035;-64
2021/03/17 04:20:42;;;;;;;1.95;1.77;;;-4.40;90.80;;;;;;5091944;28;20024;-64
2021/03/17 04:23:10;;;;;;;3.72;1.80;;;-4.50;91.10;;;;;;5091985;28;20105;-64
2021/03/17 04:25:39;;;;;;;1.85;1.70;;;-4.50;91.20;;;;;;5091821;28;20115;-65
2021/03/17 04:28:06;;;;;;;2.85;2.03;;;-4.60;90.80;;;;;;5091678;28;20039;-64
2021/03/17 04:30:33;;;;;;;2.30;1.73;;;-4.70;91.10;;;;;;5091625;28;20020;-66
2021/03/17 04:33:01;;;;;;;4.40;3.00;;;-4.80;91.30;;;;;;5091576;28;20020;-66
2021/03/17 04:35:27;;;;;;;2.00;1.80;;;-4.90;91.80;;;;;;5091505;28;20036;-66
2021/03/17 04:37:54;;;;;;;2.80;1.73;;;-5.00;92.30;;;;;;5091701;28;20024;-66
2021/03/17 04:40:22;;;;;;;3.80;2.22;;;-5.00;92.90;;;;;;5091691;28;20013;-67
2021/03/17 04:42:48;;;;;;;4.93;2.10;;;-5.00;93.00;;;;;;5091444;28;20568;-67
2021/03/17 04:45:14;;;;;;;2.15;1.95;;;-5.10;93.50;;;;;;5091556;28;20463;-66
2021/03/17 04:47:43;;;;;;;2.83;2.00;;;-5.10;93.20;;;;;;5091606;28;20020;-68
2021/03/17 04:50:12;;;;;;;2.38;2.13;;;-5.10;93.20;;;;;;5091685;28;20051;-66
2021/03/17 04:52:39;;;;;;;5.32;2.20;;;-5.10;93.50;;;;;;5091709;28;20044;-67
2021/03/17 04:55:06;;;;;;;3.38;2.30;;;-5.20;93.70;;;;;;5091776;28;20101;-67
2021/03/17 04:57:35;;;;;;;2.30;1.90;;;-5.20;93.60;;;;;;5091481;28;20029;-67
2021/03/17 05:00:03;;;;;;;2.88;2.20;;;-5.30;93.90;;;;;;5091416;28;20464;-67
2021/03/17 05:02:30;;;;;;;2.17;1.83;;;-5.30;94.20;;;;;;5091459;28;20035;-67
2021/03/17 05:04:57;;;;;;;3.55;2.10;;;-5.30;94.10;;;;;;5091126;28;20032;-67
2021/03/17 05:07:24;;;;;;;2.90;2.08;;;-5.30;94.10;;;;;;5088744;28;20502;-67
2021/03/17 05:09:52;;;;;;;3.38;2.00;;;-5.30;93.90;;;;;;5080048;28;20357;-67
2021/03/17 05:12:18;;;;;;;3.75;1.90;;;-5.40;93.80;;;;;;5091611;28;20024;-66
2021/03/17 05:14:45;;;;;;;2.10;1.90;;;-5.40;94.20;;;;;;5090902;28;20048;-67
2021/03/17 05:17:13;;;;;;;2.58;2.25;;;-5.40;94.60;;;;;;5091704;28;20369;-66
2021/03/17 05:19:41;;;;;;;4.75;2.08;;;-5.30;94.60;;;;;;5090993;28;20475;-66
2021/03/17 05:22:09;;;;;;;2.13;1.70;;;-5.10;94.40;;;;;;5091039;28;20028;-67
2021/03/17 05:24:35;;;;;;;4.18;2.20;;;-4.80;93.50;;;;;;5091313;28;20027;-67
2021/03/17 05:27:06;;;;;;;2.17;1.98;;;-4.50;92.40;;;;;;5095038;28;20479;-67
2021/03/17 05:29:31;;;;;;;;;;;-4.30;91.30;;;;;;5095752;28;20028;-67
2021/03/17 05:31:57;;;;;;;5.32;2.13;;;-4.20;90.70;;;;;;5095219;28;19953;-69
2021/03/17 05:34:23;;;;;;;3.05;1.80;;;-4.20;90.60;;;;;;5095285;28;20357;-71
2021/03/17 05:36:49;;;;;;;2.25;1.90;;;-4.00;90.20;;;;;;5095250;28;20027;-68
2021/03/17 05:39:16;;;;;;;2.55;2.13;;;-3.80;89.80;;;;;;5094896;28;20024;-69
2021/03/17 05:41:42;;;;;;;3.92;2.00;;;-3.50;92.00;;;;;;5094444;28;20099;-72
2021/03/17 05:44:09;;;;;;;2.63;1.80;;;-2.80;92.90;;;;;;5094550;28;20400;-70
2021/03/17 05:46:36;;;;;;;2.67;2.10;;;-2.70;85.30;;;;;;5094980;28;20024;-69
2021/03/17 05:49:02;;;;;;;2.53;1.90;;;-2.70;83.20;;;;;;5093942;28;20028;-72
2021/03/17 05:51:29;;;;;;;4.03;1.98;;;-2.50;82.30;;;;;;5093705;28;20051;-68
2021/03/17 05:53:55;;;;;;;4.35;1.88;;;-2.40;81.40;;;;;;5093446;28;20024;-73
2021/03/17 05:56:21;;;;;;;11.40;1.98;;;-2.20;80.50;;;;;;5087245;28;20020;-72
2021/03/17 05:58:47;;;;;;;5.13;2.00;;;-2.00;79.70;;;;;;5093427;28;20424;-71
2021/03/17 06:01:16;;;;;;;3.55;2.00;;;-1.90;78.80;;;;;;5093502;28;20059;-72
2021/03/17 06:03:43;;;;;;;6.03;1.90;;;-1.80;77.80;;;;;;5090206;28;20044;-70
2021/03/17 06:06:10;;;;;;;7.55;2.00;;;-1.70;77.80;;;;;;5090103;28;20048;-68
2021/03/17 06:08:49;;;;;;;2.78;1.90;;;-1.60;77.40;;;;;;5094053;28;20070;-70
2021/03/17 06:11:16;;;;;;;7.18;1.80;;;-1.40;76.80;;;;;;5093495;28;20020;-71
2021/03/17 06:13:50;;;;;;;5.95;1.95;;;-1.20;76.30;;;;;;5090999;28;20032;-69
2021/03/17 06:16:18;;;;;;;2.88;1.80;;;-1.20;75.50;;;;;;5089161;28;20028;-71
2021/03/17 06:18:49;;;;;;;1.95;1.75;;;-1.20;75.20;;;;;;5091718;28;20085;-71
2021/03/17 06:21:19;;;;;;;3.05;1.70;;;-1.20;74.90;;;;;;5093529;28;20032;-67
2021/03/17 06:23:50;;;;;;;6.40;1.65;;;-1.10;75.10;;;;;;5093256;28;20044;-69
2021/03/17 06:26:16;;;;;;;2.47;1.70;;;-1.10;74.40;;;;;;5093632;28;20410;-69
2021/03/17 06:28:44;;;;;;;3.25;1.52;;;-1.10;79.10;;;;;;5094260;28;20020;-69
2021/03/17 06:31:10;;;;;;;3.00;1.70;;;-1.00;75.40;;;;;;5093906;28;20467;-69
2021/03/17 06:33:38;;;;;;;1.70;1.50;;;-1.00;74.70;;;;;;5092246;28;20086;-69
2021/03/17 06:36:19;;;;;;;2.97;1.52;;;-1.00;74.50;;;;;;5093402;28;20028;-69
2021/03/17 06:38:47;;;;;;;1.98;1.73;;;-1.10;73.70;;;;;;5093705;28;20024;-70
2021/03/17 06:41:15;;;;;;;3.85;1.80;;;-1.10;74.40;;;;;;5093515;28;20468;-70
2021/03/17 06:43:43;;;;;;;2.08;1.88;;;-1.00;74.00;;;;;;5093759;28;20039;-70
2021/03/17 06:46:11;;;;;;;1.92;1.73;;;-0.80;73.80;;;;;;5093603;28;20020;-70
2021/03/17 06:48:40;;;;;;;3.03;1.80;;;-0.70;73.40;;;;;;5093333;28;20028;-70
2021/03/17 06:51:20;;;;;;;3.13;1.50;;;-0.60;72.80;;;;;;5093297;28;20085;-70
2021/03/17 06:53:48;;;;;;;2.42;1.70;;;-0.70;72.20;;;;;;5093420;28;20051;-70
2021/03/17 06:56:14;;;;;;;2.25;1.75;;;-0.80;72.40;;;;;;5093629;28;20101;-70
2021/03/17 06:58:42;;;;;;;4.05;2.03;;;-0.90;72.80;;;;;;5075073;28;20115;-70
2021/03/17 07:01:30;;;;;;;4.97;1.70;;;-1.00;73.10;;;;;;5093217;28;20028;-70
2021/03/17 07:04:01;;;;;;;1.92;1.70;;;-1.00;73.20;;;;;;5089131;28;20032;-71
2021/03/17 07:06:27;;;;;;;1.88;1.50;;;-0.30;84.70;;;;;;5093157;28;20024;-72
2021/03/17 07:08:53;;;;;;;2.17;1.90;;;0.10;83.60;;;;;;5092812;28;20028;-69
2021/03/17 07:11:30;;;;;;;4.88;1.60;;;-0.10;84.20;;;;;;5092382;28;20108;-66
2021/03/17 07:13:58;;;;;;;1.77;1.55;;;0.20;94.70;;;;;;5090687;28;20020;-65
2021/03/17 07:16:34;;;;;;;2.22;1.60;;;0.20;75.90;;;;;;5091610;28;20024;-67
2021/03/17 07:19:00;;;;;;;4.07;1.50;;;0.60;99.90;;;;;;5089181;28;20038;-66
2021/03/17 07:21:38;;;;;;;8.25;1.98;;;1.10;78.70;;;;;;5092676;28;20529;-66
2021/03/17 07:24:06;;;;;;;2.97;1.50;;;0.60;72.10;;;;;;5092558;28;20038;-67
2021/03/17 07:26:34;;;;;;;5.00;2.67;;;0.20;82.10;;;;;;5092810;28;20081;-66
2021/03/17 07:29:12;;;;;;;5.30;1.80;;;0.40;78.80;;;;;;5091783;28;20024;-66
2021/03/17 07:31:47;;;;;;;2.83;1.48;;;0.00;74.00;;;;;;5092651;28;20050;-65
2021/03/17 07:34:17;;;;;;;5.55;1.70;;;-0.60;74.00;;;;;;5092863;28;20073;-68
2021/03/17 07:37:05;;;;;;;4.30;1.80;;;-0.80;74.70;;;;;;5092282;28;20368;-67
2021/03/17 07:39:30;;;;;;;1.52;1.42;;;-0.90;75.00;;;;;;5091640;28;20111;-66
2021/03/17 07:41:59;;;;;;;2.47;1.50;;;-1.00;75.30;;;;;;5091820;28;20459;-67
2021/03/17 07:44:26;;;;;;;3.28;1.83;;;-1.10;75.40;;;;;;5091409;28;20027;-65
2021/03/17 07:46:57;;;;;;;2.03;1.70;;;-1.10;75.70;;;;;;5092639;28;20020;-65
2021/03/17 07:49:24;;;;;;;3.65;1.80;;;-1.20;75.90;;;;;;5091566;28;20046;-65
2021/03/17 07:52:02;;;;;;;4.05;1.77;;;-1.30;76.30;;;;;;5092451;28;20452;-66
2021/03/17 07:54:28;;;;;;;1.88;1.67;;;-1.50;76.50;;;;;;5092524;28;20024;-65
2021/03/17 07:56:58;;;;;;;3.60;1.90;;;-1.60;76.90;;;;;;5092069;28;20467;-65
2021/03/17 07:59:25;;;;;;;3.08;1.88;;;-1.60;77.30;;;;;;5092420;28;20032;-65
2021/03/17 08:01:58;;;;;;;4.43;1.70;;;-1.60;77.40;;;;;;5092001;28;20020;-65
2021/03/17 08:04:29;;;;;;;2.08;1.63;;;-1.60;77.50;;;;;;5091888;28;20085;-65
2021/03/17 08:06:57;;;;;;;3.75;2.85;;;-1.60;77.70;;;;;;5077753;28;20119;-65
2021/03/17 08:09:23;;;;;;;6.53;1.73;;;-1.40;78.10;;;;;;5091925;28;20024;-65
2021/03/17 08:11:51;;;;;;;4.88;1.90;;;-1.30;77.50;;;;;;5092086;28;20016;-67
2021/03/17 08:14:18;;;;;;;4.28;1.63;;;-1.20;77.20;;;;;;5074304;28;20048;-67
2021/03/17 08:16:44;;;;;;;6.53;1.90;;;-1.20;77.00;;;;;;5091843;28;20373;-68
2021/03/17 08:19:29;;;;;;;3.90;1.88;;;-1.20;77.00;;;;;;5091264;28;20024;-67
2021/03/17 08:22:04;;;;;;;3.17;2.03;;;-1.20;77.10;;;;;;5092044;28;20369;-67
2021/03/17 08:24:33;;;;;;;4.63;1.67;;;-1.10;77.40;;;;;;5097569;28;20035;-67
2021/03/17 08:27:22;;;;;;;2.08;1.73;;;-1.00;76.90;;;;;;5094642;28;20020;-67
2021/03/17 08:30:09;;;;;;;3.13;1.65;;;-0.80;77.40;;;;;;5088877;28;20169;-67
2021/03/17 08:32:51;;;;;;;3.17;1.83;;;-0.80;76.50;;;;;;5089439;28;20020;-67
2021/03/17 08:35:17;;;;;;;3.95;1.80;;;-0.80;76.90;;;;;;5090603;28;20113;-70
2021/03/17 08:37:48;;;;;;;3.08;1.52;;;-0.80;76.70;;;;;;5090834;28;20051;-70
2021/03/17 08:40:28;;;;;;;6.22;1.95;;;-0.70;76.80;;;;;;5091266;28;20024;-71
2021/03/17 08:42:54;;;;;;;;;;;-0.70;77.00;;;;;;5088866;28;20032;-70
2021/03/17 08:45:22;;;;;;;2.97;1.60;;;-0.70;77.40;;;;;;5091993;28;19907;-70
2021/03/17 08:47:49;;;;;;;8.05;1.80;;;-0.60;77.50;;;;;;5091892;28;20024;-71
2021/03/17 08:50:15;;;;;;;4.95;1.60;;;-0.50;77.60;;;;;;5092307;28;20027;-71
2021/03/17 08:52:43;;;;;;;4.45;1.92;;;-0.40;77.40;;;;;;5092083;28;20016;-70
2021/03/17 08:55:20;;;;;;;5.50;1.80;;;-0.30;77.50;;;;;;5091565;28;20592;-70
2021/03/17 08:57:50;;;;;;;4.50;2.10;;;-0.30;77.40;;;;;;5092337;28;20024;-74
2021/03/17 09:00:41;;;;;;;3.50;1.90;;;-0.20;76.50;;;;;;5093407;28;20028;-75
2021/03/17 09:03:07;;;;;;;1.80;1.60;;;-0.10;76.90;;;;;;5096292;28;20040;-71
2021/03/17 09:05:33;;;;;;;4.10;1.77;;;-0.10;76.50;;;;;;5095404;28;20027;-73
2021/03/17 09:08:02;;;;;;;3.67;1.50;;;-0.10;76.10;;;;;;5095815;28;20383;-72
2021/03/17 09:10:44;;;;;;;4.07;1.60;;;-0.10;80.00;;;;;;5096149;28;20016;-73
2021/03/17 09:13:11;;;;;;;5.07;1.45;;;0.40;99.90;;;;;;5095906;28;20031;-69
2021/03/17 09:15:50;;;;;;;1.55;1.35;;;0.80;94.00;;;;;;5095654;28;20059;-69
2021/03/17 09:18:20;;;;;;;3.10;1.60;;;1.00;89.80;;;;;;5096132;28;20020;-70
2021/03/17 09:20:50;;;;;;;1.88;1.58;;;1.20;92.50;;;;;;5095720;28;20588;-69
2021/03/17 09:23:17;;;;;;;4.20;1.70;;;1.30;86.10;;;;;;5095571;28;20042;-69
2021/03/17 09:25:47;;;;;;;10.30;1.52;;;1.50;83.90;;;;;;5095565;28;20024;-82
2021/03/17 09:28:30;;;;;;;5.50;1.45;;;1.60;88.70;;;;;;5094726;28;20111;-76
2021/03/17 09:31:02;;;;;;;8.57;1.65;;;1.70;77.70;;;;;;5095654;28;20364;-72
2021/03/17 09:33:39;;;;;;;4.85;1.70;;;1.40;75.00;;;;;;5095158;28;20020;-75
2021/03/17 09:36:09;;;;;;;2.33;1.60;;;1.30;74.40;;;;;;5075375;28;20037;-74
2021/03/17 09:38:39;;;;;;;5.30;1.55;;;1.20;74.60;;;;;;5087089;28;20478;-69
2021/03/17 09:41:15;;;;;;;2.28;1.25;;;1.20;74.90;;;;;;5095289;28;20036;-75
2021/03/17 09:43:48;;;;;;;4.65;2.20;;;1.20;76.10;;;;;;5095601;28;20353;-76
2021/03/17 09:46:28;;;;;;;3.05;1.52;;;1.30;84.20;;;;;;5095466;28;20031;-72
2021/03/17 09:49:04;;;;;;;3.13;1.55;;;1.40;78.70;;;;;;5095506;28;20035;-74
2021/03/17 09:51:53;;;;;;;3.92;1.27;;;1.30;79.20;;;;;;5096734;28;20028;-79
2021/03/17 09:54:25;;;;;;;3.03;1.60;;;1.50;79.00;;;;;;5074956;28;20039;-77
2021/03/17 09:56:56;;;;;;;2.03;1.73;;;1.50;78.60;;;;;;5082087;28;20502;-78
2021/03/17 09:59:25;;;;;;;2.70;1.35;;;1.50;77.30;;;;;;5095654;28;20016;-73
2021/03/17 10:02:02;;;;;;;4.97;1.75;;;1.50;76.00;;;;;;5094235;28;20050;-76
2021/03/17 10:04:38;;;;;;;1.80;1.40;;;1.60;76.40;;;;;;5094862;28;20099;-75
2021/03/17 10:07:06;;;;;;;2.67;1.67;;;1.60;74.90;;;;;;5094069;28;20640;-68
2021/03/17 10:09:34;;;;;;;2.38;1.48;;;1.70;75.80;;;;;;5091474;28;20020;-68
2021/03/17 10:12:13;;;;;;;1.65;1.38;;;1.70;74.60;;;;;;5092704;28;20024;-68
2021/03/17 10:14:45;;;;;;;4.90;1.23;;;1.70;76.00;;;;;;5096817;28;20052;-68
2021/03/17 10:17:12;;;;;;;3.20;1.73;;;1.70;74.90;;;;;;5095300;28;20096;-69
2021/03/17 10:19:39;;;;;;;2.15;1.60;;;1.80;76.40;;;;;;5094515;28;20059;-70
2021/03/17 10:22:06;;;;;;;1.88;1.30;;;1.90;75.30;;;;;;5094504;28;20028;-69
2021/03/17 10:24:31;;;;;;;3.05;1.50;;;2.00;76.00;;;;;;5094446;28;20028;-67
2021/03/17 10:26:58;;;;;;;1.30;1.20;;;2.10;75.70;;;;;;5094493;28;20103;-68
2021/03/17 10:29:24;;;;;;;1.52;1.23;;;2.20;75.20;;;;;;5094139;28;20111;-68
2021/03/17 10:31:54;;;;;;;1.23;1.00;;;2.10;73.70;;;;;;5094169;28;20031;-68
2021/03/17 10:34:21;;;;;;;1.52;1.33;;;2.10;73.80;;;;;;5094023;28;20020;-68
2021/03/17 10:36:52;;;;;;;4.82;1.30;;;2.10;73.70;;;;;;5094060;28;20065;-68
2021/03/17 10:39:18;;;;;;;2.15;1.20;;;2.20;74.10;;;;;;5093963;28;20051;-67
2021/03/17 10:41:46;;;;;;;3.53;1.30;;;2.20;73.60;;;;;;5093972;28;20020;-67
2021/03/17 10:44:17;;;;;;;2.45;1.40;;;2.20;73.30;;;;;;5093993;28;20535;-67
2021/03/17 10:46:59;;;;;;;1.92;1.27;;;2.20;72.80;;;;;;5093853;28;20487;-67
2021/03/17 10:49:26;;;;;;;3.25;1.45;;;2.10;72.50;;;;;;5094149;28;20472;-67
2021/03/17 10:51:56;;;;;;;2.65;1.10;;;2.10;72.50;;;;;;5093978;28;20028;-68
2021/03/17 10:54:42;;;;;;;2.60;1.15;;;2.20;72.60;;;;;;5094161;28;20052;-68
2021/03/17 10:57:17;;;;;;;1.20;1.10;;;2.20;72.60;;;;;;5093886;28;20489;-68
2021/03/17 10:59:43;;;;;;;2.08;1.33;;;2.20;71.90;;;;;;5094055;28;20028;-68
2021/03/17 11:02:26;;;;;;;1.23;1.13;;;2.20;72.20;;;;;;5093519;28;20024;-68
2021/03/17 11:05:09;;;;;;;2.25;1.25;;;2.30;72.20;;;;;;5093630;28;20039;-67
2021/03/17 11:08:00;;;;;;;2.85;1.27;;;2.40;72.00;;;;;;5093641;28;20426;-67
2021/03/17 11:10:46;;;;;;;2.42;1.17;;;2.50;71.60;;;;;;5093652;28;20081;-69
2021/03/17 11:13:11;;;;;;;1.95;1.38;;;2.50;70.80;;;;;;5093553;28;20023;-66
2021/03/17 11:15:57;;;;;;;2.53;1.30;;;2.50;71.10;;;;;;5093510;28;20427;-66
2021/03/17 11:18:27;;;;;;;3.25;1.20;;;2.60;71.80;;;;;;5093462;28;20027;-67
2021/03/17 11:20:56;;;;;;;2.75;1.40;;;2.60;70.70;;;;;;5093418;28;20016;-67
2021/03/17 11:23:26;;;;;;;1.83;1.30;;;2.60;70.60;;;;;;5092464;28;20039;-67
2021/03/17 11:25:55;;;;;;;3.70;2.28;;;2.70;71.30;;;;;;5093495;28;20258;-67
2021/03/17 11:28:24;;;;;;;3.85;1.10;;;2.80;71.20;;;;;;5093011;28;20028;-66
2021/03/17 11:30:51;;;;;;;1.58;1.40;;;2.80;71.20;;;;;;5092234;28;20089;-69
2021/03/17 11:33:18;;;;;;;1.45;1.10;;;2.70;70.80;;;;;;5092445;28;20294;-70
2021/03/17 11:35:45;;;;;;;1.55;1.30;;;2.70;70.80;;;;;;5092638;28;20069;-72
2021/03/17 11:38:12;;;;;;;2.28;1.10;;;2.80;71.00;;;;;;5074428;28;20115;-69
2021/03/17 11:40:38;;;;;;;2.58;1.30;;;2.90;71.70;;;;;;5092874;28;20530;-70
2021/03/17 11:43:06;;;;;;;3.25;1.48;;;3.00;71.60;;;;;;5093001;28;20089;-70
2021/03/17 11:45:32;;;;;;;2.33;1.40;;;3.10;71.60;;;;;;5092994;28;20062;-69
2021/03/17 11:47:58;;;;;;;2.38;1.23;;;3.20;71.60;;;;;;5093048;28;20422;-70
2021/03/17 11:50:24;;;;;;;4.57;1.40;;;3.30;70.70;;;;;;5092854;28;20025;-70
2021/03/17 11:52:50;;;;;;;1.70;1.20;;;3.30;70.20;;;;;;5093246;28;20039;-69
2021/03/17 11:55:20;;;;;;;2.63;1.15;;;3.30;70.50;;;;;;5092743;28;20020;-69
2021/03/17 11:57:47;;;;;;;2.65;1.30;;;3.40;70.00;;;;;;5092851;28;20043;-70
2021/03/17 12:00:14;;;;;;;2.70;1.48;;;3.40;70.20;;;;;;5092639;28;20028;-70
2021/03/17 12:02:40;;;;;;;1.90;1.05;;;3.50;70.20;;;;;;5074430;28;20059;-70
2021/03/17 12:05:06;;;;;;;2.90;1.05;;;3.60;70.00;;;;;;5092447;28;20064;-70
2021/03/17 12:07:32;;;;;;;2.65;1.10;;;3.50;69.10;;;;;;5074380;28;20020;-69
2021/03/17 12:09:58;;;;;;;1.55;0.93;;;3.50;68.80;;;;;;5092522;28;20384;-68
2021/03/17 12:12:24;;;;;;;1.42;1.20;;;3.50;68.60;;;;;;5092704;28;20028;-68
2021/03/17 12:14:50;;;;;;;1.40;1.10;;;3.50;69.30;;;;;;5092319;28;20105;-68
2021/03/17 12:17:15;;;;;;;1.83;1.17;;;3.50;68.70;;;;;;5092340;28;20117;-68
2021/03/17 12:19:41;;;;;;;1.77;1.02;;;3.50;68.20;;;;;;5092712;28;20482;-69
2021/03/17 12:22:07;;;;;;;1.65;1.08;;;3.60;68.60;;;;;;5092153;28;20031;-72
2021/03/17 12:24:33;;;;;;;1.98;1.17;;;3.60;68.10;;;;;;5093382;28;20377;-69
2021/03/17 12:26:59;;;;;;;1.60;1.10;;;4.80;84.00;;;;;;5092504;28;20024;-69
2021/03/17 12:29:25;;;;;;;1.70;0.95;;;5.00;74.40;;;;;;5091566;28;20361;-70
2021/03/17 12:31:51;;;;;;;1.98;1.13;;;5.20;83.60;;;;;;5091945;28;20035;-70
2021/03/17 12:34:16;;;;;;;3.03;1.20;;;5.10;68.90;;;;;;5091639;28;20073;-70
2021/03/17 12:36:42;;;;;;;3.08;1.10;;;4.80;67.50;;;;;;5092122;28;20016;-70
2021/03/17 12:39:08;;;;;;;3.58;1.33;;;4.60;67.10;;;;;;5092224;28;20027;-70
2021/03/17 12:41:34;;;;;;;1.20;1.10;;;4.40;67.60;;;;;;5091629;28;20467;-65
2021/03/17 12:43:59;;;;;;;2.67;1.08;;;4.30;68.10;;;;;;5091680;28;20503;-67
2021/03/17 12:46:25;;;;;;;1.85;1.17;;;4.20;68.60;;;;;;5091890;28;20538;-77
2021/03/17 12:48:51;;;;;;;1.73;1.20;;;4.20;67.90;;;;;;5092034;28;20026;-67
2021/03/17 12:51:16;;;;;;;0.77;0.77;;;7.10;99.90;;;;;;5092034;28;20024;-67
2021/03/17 12:53:42;;;;;;;1.73;1.00;;;8.50;73.60;;;;;;5091976;28;20052;-67
2021/03/17 12:56:08;;;;;;;1.83;0.90;;;8.30;76.70;;;;;;5091621;28;20107;-67
2021/03/17 12:58:34;;;;;;;1.38;1.08;;;8.30;76.70;;;;;;5091322;28;20055;-67
2021/03/17 13:01:00;;;;;;;3.03;0.98;;;8.20;74.30;;;;;;5091909;28;20017;-70
2021/03/17 13:03:26;;;;;;;1.65;1.00;;;8.20;75.50;;;;;;5091478;28;20043;-68
2021/03/17 13:05:52;;;;;;;1.55;1.00;;;8.30;65.20;;;;;;5089507;28;20619;-68
2021/03/17 13:08:18;;;;;;;1.85;0.90;;;6.90;59.80;;;;;;5089217;28;20029;-68
2021/03/17 13:10:44;;;;;;;1.75;1.10;;;6.10;61.60;;;;;;5090843;28;20024;-67
2021/03/17 13:13:10;;;;;;;1.25;1.00;;;5.50;61.30;;;;;;5091282;28;20035;-67
2021/03/17 13:15:36;;;;;;;2.22;0.90;;;5.00;62.90;;;;;;5091256;28;20059;-67
2021/03/17 13:18:02;;;;;;;1.17;1.05;;;4.70;63.20;;;;;;5091603;28;20375;-67
2021/03/17 13:20:31;;;;;;;0.80;0.80;;;4.50;63.90;;;;;;5091553;28;20446;-69
2021/03/17 13:22:57;;;;;;;3.83;0.90;;;4.40;63.80;;;;;;5091574;28;20039;-69
2021/03/17 13:25:23;;;;;;;1.17;1.00;;;4.30;64.30;;;;;;5090920;28;20024;-69
2021/03/17 13:27:49;;;;;;;1.00;0.80;;;4.20;64.30;;;;;;5091700;28;20016;-72
2021/03/17 13:30:16;;;;;;;1.85;1.10;;;4.10;64.80;;;;;;5091061;28;20116;-71
2021/03/17 13:32:42;;;;;;;2.63;0.95;;;4.00;64.80;;;;;;5091360;28;20016;-75
2021/03/17 13:35:09;;;;;;;2.65;1.17;;;5.00;84.50;;;;;;5091239;28;20055;-74
2021/03/17 13:37:36;;;;;;;1.88;1.17;;;5.70;73.20;;;;;;5091729;28;20784;-70
2021/03/17 13:40:08;;;;;;;4.35;1.10;;;5.60;65.20;;;;;;5092060;28;20028;-71
2021/03/17 13:42:34;;;;;;;1.92;0.98;;;5.70;68.50;;;;;;5091834;28;20069;-71
2021/03/17 13:45:00;;;;;;;1.70;1.15;;;5.30;63.90;;;;;;5091647;28;20039;-71
2021/03/17 13:47:26;;;;;;;2.53;1.15;;;4.90;63.70;;;;;;5094190;28;20020;-71
2021/03/17 13:49:52;;;;;;;2.92;1.10;;;4.50;64.10;;;;;;5095252;28;20081;-70
2021/03/17 13:52:18;;;;;;;1.25;0.95;;;4.30;64.90;;;;;;5094834;28;20036;-71
2021/03/17 13:54:43;;;;;;;2.10;0.90;;;4.20;64.10;;;;;;5095176;28;20023;-70
2021/03/17 13:57:09;;;;;;;1.10;0.90;;;4.00;64.90;;;;;;5094734;28;20494;-69
2021/03/17 13:59:35;;;;;;;5.30;1.40;;;3.90;64.70;;;;;;5076374;28;20032;-70
2021/03/17 14:02:00;;;;;;;1.08;0.90;;;3.80;65.00;;;;;;5094684;28;20024;-70
2021/03/17 14:04:27;;;;;;;0.77;0.70;;;3.70;65.60;;;;;;5094719;28;20067;-70
2021/03/17 14:06:53;;;;;;;1.20;1.08;;;3.60;65.50;;;;;;5094705;28;20077;-70
2021/03/17 14:09:18;;;;;;;1.80;1.20;;;3.60;65.30;;;;;;5094750;28;20111;-69
2021/03/17 14:11:44;;;;;;;1.38;1.10;;;3.50;65.00;;;;;;5095022;28;20107;-70
2021/03/17 14:14:10;;;;;;;1.27;1.05;;;3.50;65.50;;;;;;5094725;28;20124;-69
2021/03/17 14:16:36;;;;;;;1.58;1.00;;;3.30;65.00;;;;;;5094590;28;20035;-70
2021/03/17 14:19:05;;;;;;;4.50;1.00;;;3.20;65.30;;;;;;5094535;28;20024;-69
2021/03/17 14:21:31;;;;;;;3.03;1.30;;;3.20;65.90;;;;;;5094304;28;20581;-70
2021/03/17 14:23:57;;;;;;;1.33;0.95;;;3.10;65.80;;;;;;5094541;28;20127;-70
2021/03/17 14:26:22;;;;;;;1.20;1.10;;;3.10;65.90;;;;;;5094792;28;20028;-70
2021/03/17 14:28:48;;;;;;;1.23;1.10;;;3.10;65.80;;;;;;5094595;28;20028;-70
2021/03/17 14:31:14;;;;;;;1.02;0.90;;;3.10;66.40;;;;;;5094408;28;20035;-69
2021/03/17 14:33:39;;;;;;;2.80;1.00;;;3.10;66.10;;;;;;5094514;28;20031;-69
2021/03/17 14:36:06;;;;;;;1.13;0.90;;;3.10;66.30;;;;;;5094306;28;20487;-69
2021/03/17 14:38:31;;;;;;;2.97;1.10;;;3.10;66.30;;;;;;5093774;28;20476;-68
2021/03/17 14:40:57;;;;;;;2.13;1.25;;;3.00;66.20;;;;;;5093729;28;20035;-69
2021/03/17 14:43:23;;;;;;;1.60;1.00;;;3.00;66.30;;;;;;5093846;28;20052;-67
2021/03/17 14:45:48;;;;;;;2.03;1.20;;;3.00;66.40;;;;;;5093979;28;20476;-68
2021/03/17 14:48:14;;;;;;;2.90;1.20;;;3.00;66.30;;;;;;5093847;28;20024;-68
2021/03/17 14:50:41;;;;;;;2.13;1.13;;;2.90;66.30;;;;;;5093316;28;20031;-68
2021/03/17 14:53:08;;;;;;;1.35;0.98;;;2.90;66.10;;;;;;5093708;28;20026;-69
2021/03/17 14:55:34;;;;;;;1.10;1.00;;;2.90;66.40;;;;;;5093368;28;20031;-69
2021/03/17 14:57:59;;;;;;;2.38;1.00;;;2.90;66.40;;;;;;5093430;28;20020;-69
2021/03/17 15:00:25;;;;;;;1.33;1.00;;;2.80;66.40;;;;;;5093264;28;20024;-68
2021/03/17 15:02:55;;;;;;;2.30;1.30;;;2.80;66.70;;;;;;5093172;28;20543;-69
2021/03/17 15:05:21;;;;;;;3.85;1.50;;;2.80;67.00;;;;;;5093207;28;20639;-69
2021/03/17 15:07:46;;;;;;;2.10;1.30;;;2.90;67.10;;;;;;5093570;28;20273;-69
2021/03/17 15:10:16;;;;;;;2.45;1.25;;;2.90;67.00;;;;;;5093885;28;20024;-69
2021/03/17 15:12:42;;;;;;;2.03;1.35;;;2.90;67.30;;;;;;5092864;28;20450;-69
2021/03/17 15:15:08;;;;;;;1.88;1.23;;;2.80;66.70;;;;;;5092725;28;20048;-69
2021/03/17 15:17:36;;;;;;;1.95;1.20;;;2.80;66.70;;;;;;5093010;28;20050;-72
2021/03/17 15:20:11;;;;;;;3.53;1.20;;;2.90;67.00;;;;;;5093215;28;20027;-72
2021/03/17 15:22:37;;;;;;;2.03;1.25;;;2.80;66.60;;;;;;5091012;28;20499;-71
2021/03/17 15:25:03;;;;;;;1.10;1.00;;;2.80;66.80;;;;;;5093294;28;20067;-68
2021/03/17 15:27:29;;;;;;;2.20;1.30;;;2.80;66.60;;;;;;5092404;28;20028;-69
2021/03/17 15:29:54;;;;;;;2.40;1.35;;;2.80;66.90;;;;;;5092935;28;20027;-69
2021/03/17 15:32:21;;;;;;;4.05;1.40;;;2.70;67.20;;;;;;5092609;28;20048;-69
2021/03/17 15:34:47;;;;;;;1.55;1.20;;;2.80;67.70;;;;;;5092640;28;20104;-69
2021/03/17 15:37:13;;;;;;;1.90;1.30;;;2.90;69.20;;;;;;5092486;28;20491;-69
2021/03/17 15:39:39;;;;;;;2.00;1.05;;;2.90;67.80;;;;;;5092631;28;20028;-69
2021/03/17 15:42:05;;;;;;;1.48;1.20;;;2.80;67.20;;;;;;5092488;28;20024;-69
2021/03/17 15:44:31;;;;;;;1.70;1.23;;;2.80;68.00;;;;;;5092177;28;20110;-69
2021/03/17 15:46:56;;;;;;;2.20;1.23;;;2.80;68.40;;;;;;5092421;28;20142;-69
2021/03/17 15:49:22;;;;;;;4.10;1.33;;;2.80;67.90;;;;;;5092138;28;20031;-69
2021/03/17 15:51:48;;;;;;;2.20;1.00;;;2.70;67.90;;;;;;5092429;28;20038;-68
2021/03/17 15:54:14;;;;;;;3.40;1.10;;;2.60;68.00;;;;;;5074449;28;20420;-69
2021/03/17 15:56:39;;;;;;;1.75;1.25;;;2.60;68.60;;;;;;5091758;28;20483;-69
2021/03/17 15:59:06;;;;;;;1.30;1.20;;;2.50;68.50;;;;;;5092215;28;20742;-67
2021/03/17 16:01:31;;;;;;;1.80;1.30;;;3.00;80.50;;;;;;5092314;28;20015;-67
2021/03/17 16:03:57;;;;;;;1.40;1.17;;;3.40;75.70;;;;;;5092171;28;20043;-67
2021/03/17 16:06:23;;;;;;;2.13;1.30;;;3.50;72.10;;;;;;5092309;28;20016;-68
2021/03/17 16:08:49;;;;;;;2.42;1.02;;;3.40;69.20;;;;;;5091634;28;20536;-67
2021/03/17 16:11:15;;;;;;;1.77;1.17;;;3.10;68.40;;;;;;5091980;28;20016;-67
2021/03/17 16:13:41;;;;;;;3.45;1.20;;;2.90;68.90;;;;;;5092255;28;20024;-67
2021/03/17 16:16:07;;;;;;;1.42;1.00;;;2.90;69.40;;;;;;5091894;28;20066;-67
2021/03/17 16:18:33;;;;;;;3.25;1.00;;;2.70;69.20;;;;;;5091900;28;20535;-69
2021/03/17 16:20:59;;;;;;;2.15;1.30;;;2.60;69.80;;;;;;5091601;28;20027;-69
2021/03/17 16:23:25;;;;;;;4.50;1.30;;;2.50;69.80;;;;;;5092179;28;20039;-70
2021/03/17 16:25:51;;;;;;;2.97;1.25;;;2.50;70.90;;;;;;5092294;28;20020;-69
2021/03/17 16:28:17;;;;;;;1.58;1.20;;;2.50;70.40;;;;;;5092473;28;20044;-69
2021/03/17 16:30:43;;;;;;;1.20;1.10;;;2.40;70.70;;;;;;5092243;28;20048;-69
2021/03/17 16:33:09;;;;;;;2.17;1.30;;;2.40;70.80;;;;;;5092240;28;20034;-70
2021/03/17 16:35:35;;;;;;;3.03;1.27;;;2.40;71.20;;;;;;5092093;28;20031;-69
2021/03/17 16:38:02;;;;;;;1.48;1.38;;;2.40;70.90;;;;;;5092417;28;20024;-69
2021/03/17 16:40:29;;;;;;;2.58;1.30;;;2.40;70.30;;;;;;5092049;28;20050;-69
2021/03/17 16:42:58;;;;;;;2.40;1.50;;;2.40;70.10;;;;;;5091975;28;20028;-69
2021/03/17 16:45:24;;;;;;;3.30;1.70;;;2.30;70.60;;;;;;5091967;28;20031;-68
2021/03/17 16:47:49;;;;;;;1.80;1.33;;;2.30;70.60;;;;;;5092110;28;20023;-69
2021/03/17 16:50:15;;;;;;;10.68;2.58;;;2.20;69.90;;;;;;5092072;28;20464;-70
2021/03/17 16:52:41;;;;;;;4.80;1.75;;;2.10;70.20;;;;;;5091766;28;20099;-69
2021/03/17 16:55:07;;;;;;;4.55;1.52;;;2.00;70.70;;;;;;5091752;28;20032;-70
2021/03/17 16:57:34;;;;;;;1.30;1.20;;;1.80;70.60;;;;;;5091791;28;20036;-69
2021/03/17 16:59:59;;;;;;;1.67;1.35;;;1.70;70.50;;;;;;5091609;28;20046;-70
2021/03/17 17:02:25;;;;;;;1.90;1.50;;;1.60;71.40;;;;;;5091740;28;20028;-67
2021/03/17 17:04:52;;;;;;;2.28;1.23;;;1.50;71.60;;;;;;5092118;28;20032;-69
2021/03/17 17:07:22;;;;;;;4.38;1.70;;;1.50;72.00;;;;;;5091740;28;20086;-69
2021/03/17 17:09:48;;;;;;;1.33;1.23;;;1.80;87.90;;;;;;5092844;28;20384;-69
2021/03/17 17:12:14;;;;;;;2.80;1.38;;;2.50;75.50;;;;;;5095422;28;20076;-68
2021/03/17 17:14:39;;;;;;;2.25;1.20;;;2.30;72.30;;;;;;5093137;28;20496;-68